Time;durP1;ratioP1;P1;durP2;ratioP2;P2;SDS_P1;SDS_P2;PMS_P1;PMS_P2;Temp;Humidity;BMP_temperature;BMP_pressure;BME280_temperature;BME280_humidity;BME280_pressure;Samples;Min_cycle;Max_cycle;Signal;HPM_P1;HPM_P2
2022/12/12 00:00:39;;;;;;;14.32;3.17;;;;;;;-0.67;79.05;99426.69;5102480;28;20052;-51
2022/12/12 00:03:06;;;;;;;14.57;4.13;;;;;;;-0.64;78.44;99431.88;5079973;28;20788;-50
2022/12/12 00:05:33;;;;;;;13.90;4.13;;;;;;;-0.62;78.62;99430.22;5102673;28;20047;-50
2022/12/12 00:08:00;;;;;;;17.88;4.18;;;;;;;-0.60;78.73;99428.63;5104209;28;20044;-47
2022/12/12 00:10:26;;;;;;;14.70;3.58;;;;;;;-0.60;78.84;99422.66;5100167;28;20039;-50
2022/12/12 00:12:53;;;;;;;15.50;3.97;;;;;;;-0.60;78.74;99428.63;5100483;28;20054;-53
2022/12/12 00:15:20;;;;;;;15.27;3.35;;;;;;;-0.59;78.84;99429.47;5100864;28;20039;-52
2022/12/12 00:17:46;;;;;;;10.60;4.93;;;;;;;-0.63;79.07;99428.50;5099191;28;20047;-47
2022/12/12 00:20:13;;;;;;;6.32;2.65;;;;;;;-0.63;79.21;99420.88;5103133;28;20067;-50
2022/12/12 00:22:40;;;;;;;12.35;3.65;;;;;;;-0.65;79.52;99430.13;5102443;28;20455;-47
2022/12/12 00:25:07;;;;;;;18.08;3.67;;;;;;;-0.62;79.03;99429.34;5103633;28;20116;-50
2022/12/12 00:27:34;;;;;;;11.23;2.83;;;;;;;-0.65;79.59;99433.53;5101591;28;20090;-49
2022/12/12 00:30:00;;;;;;;13.02;5.38;;;;;;;-0.67;79.67;99431.75;5098250;28;20120;-52
2022/12/12 00:32:27;;;;;;;16.33;5.13;;;;;;;-0.64;79.73;99439.50;5099156;28;20063;-49
2022/12/12 00:34:54;;;;;;;32.85;5.22;;;;;;;-0.63;79.64;99435.25;5084308;28;20096;-49
2022/12/12 00:37:20;;;;;;;20.80;4.43;;;;;;;-0.65;79.48;99440.28;5097119;28;20112;-48
2022/12/12 00:39:47;;;;;;;20.83;4.93;;;;;;;-0.63;79.48;99443.78;5099008;28;20437;-52
2022/12/12 00:42:13;;;;;;;16.08;2.95;;;;;;;-0.61;79.76;99442.13;5099707;28;20131;-52
2022/12/12 00:44:40;;;;;;;22.38;4.63;;;;;;;-0.60;79.42;99446.41;5095779;28;20044;-49
2022/12/12 00:47:07;;;;;;;14.93;5.32;;;;;;;-0.60;79.54;99443.88;5098581;28;20545;-49
2022/12/12 00:49:34;;;;;;;10.30;2.83;;;;;;;-0.57;79.56;99446.50;5099311;28;20082;-52
2022/12/12 00:52:01;;;;;;;19.13;4.97;;;;;;;-0.56;79.51;99449.91;5099417;28;20051;-55
2022/12/12 00:54:28;;;;;;;19.70;6.60;;;;;;;-0.54;78.72;99446.59;5104273;28;20043;-50
2022/12/12 00:56:54;;;;;;;13.27;4.72;;;;;;;-0.50;79.69;99449.25;5101202;28;20059;-54
2022/12/12 00:59:21;;;;;;;18.88;3.92;;;;;;;-0.50;79.48;99455.22;5101782;28;20143;-51
2022/12/12 01:01:48;;;;;;;18.00;4.40;;;;;;;-0.50;79.80;99454.34;5102321;28;20445;-52
2022/12/12 01:04:15;;;;;;;17.33;5.95;;;;;;;-0.49;79.31;99466.25;5101477;28;20051;-47
2022/12/12 01:06:42;;;;;;;22.27;5.95;;;;;;;-0.48;79.39;99457.81;5096297;28;20048;-50
2022/12/12 01:09:08;;;;;;;17.23;5.22;;;;;;;-0.48;79.41;99452.72;5105073;28;20051;-53
2022/12/12 01:11:35;;;;;;;14.68;4.35;;;;;;;-0.49;79.85;99453.50;5100203;28;20055;-47
2022/12/12 01:14:02;;;;;;;16.17;3.85;;;;;;;-0.52;79.64;99450.06;5101679;28;20621;-54
2022/12/12 01:16:30;;;;;;;12.80;4.85;;;;;;;-0.50;79.41;99459.44;5099691;28;20143;-51
2022/12/12 01:18:57;;;;;;;11.25;4.35;;;;;;;-0.54;79.94;99463.56;5100331;28;20101;-47
2022/12/12 01:21:24;;;;;;;12.57;5.78;;;;;;;-0.54;79.47;99464.41;5100511;28;20051;-49
2022/12/12 01:23:53;;;;;;;31.48;6.30;;;;;;;-0.52;79.68;99467.00;5103495;28;20055;-48
2022/12/12 01:26:23;;;;;;;12.95;4.13;;;;;;;-0.52;79.75;99461.91;5101024;28;20568;-50
2022/12/12 01:28:52;;;;;;;16.35;4.70;;;;;;;-0.52;79.58;99467.00;5083367;28;20062;-51
2022/12/12 01:31:21;;;;;;;32.20;5.28;;;;;;;-0.53;79.28;99461.03;5100074;28;20501;-49
2022/12/12 01:33:50;;;;;;;20.98;6.15;;;;;;;-0.53;79.44;99461.03;5099383;28;20103;-52
2022/12/12 01:36:21;;;;;;;17.58;5.63;;;;;;;-0.51;79.40;99453.47;5097701;28;20122;-53
2022/12/12 01:38:51;;;;;;;22.33;7.32;;;;;;;-0.50;79.22;99451.78;5085622;28;20044;-50
2022/12/12 01:41:20;;;;;;;20.17;5.55;;;;;;;-0.48;79.66;99452.72;5079610;28;20147;-50
2022/12/12 01:43:49;;;;;;;18.17;6.22;;;;;;;-0.48;79.18;99450.19;5085412;28;20059;-48
2022/12/12 01:46:40;;;;;;;13.85;5.53;;;;;;;-0.48;78.97;99452.72;5095863;28;20101;-54
2022/12/12 01:51:46;;;;;;;23.17;5.75;;;;;;;-0.46;79.44;99451.06;5035415;27;20406;-47
2022/12/12 01:54:18;;;;;;;18.80;5.65;;;;;;;-0.47;79.59;99459.53;5017190;28;20559;-52
2022/12/12 01:56:46;;;;;;;20.48;6.20;;;;;;;-0.46;79.01;99451.06;5017260;28;20148;-51
2022/12/12 01:59:16;;;;;;;16.25;5.22;;;;;;;-0.44;79.30;99449.47;5016359;28;20132;-52
2022/12/12 02:01:44;;;;;;;17.15;4.78;;;;;;;-0.45;79.56;99447.72;5019754;28;20084;-54
2022/12/12 02:04:12;;;;;;;13.32;4.05;;;;;;;-0.47;79.08;99441.72;5019575;28;20053;-45
2022/12/12 02:06:39;;;;;;;21.25;6.15;;;;;;;-0.45;79.55;99450.25;5018926;28;20057;-47
2022/12/12 02:09:11;;;;;;;14.88;3.80;;;;;;;-0.47;79.26;99447.66;5018932;28;20072;-50
2022/12/12 02:11:44;;;;;;;6.68;2.53;;;;;;;-0.51;79.73;99448.38;5018756;28;20085;-49
2022/12/12 02:14:15;;;;;;;19.52;6.13;;;;;;;-0.49;79.50;99445.88;5020820;28;20481;-50
2022/12/12 02:22:03;;;;;;;20.35;6.72;;;;;;;-0.42;79.36;99458.00;5030501;28;20406;-49
2022/12/12 02:38:20;;;;;;;16.73;5.40;;;;;;;-0.30;79.24;99453.28;5065827;27;20415;-50
2022/12/12 02:43:43;;;;;;;38.25;12.20;;;;;;;0.01;77.75;99439.78;5020874;28;20425;-52
2022/12/12 02:46:23;;;;;;;29.13;8.73;;;;;;;-0.22;78.60;99439.94;5016669;28;20085;-46
2022/12/12 02:48:58;;;;;;;19.05;7.90;;;;;;;-0.29;78.93;99439.78;5018743;28;20132;-50
2022/12/12 02:51:26;;;;;;;21.98;8.27;;;;;;;-0.31;78.61;99436.28;5016585;28;20128;-50
2022/12/12 02:53:53;;;;;;;29.27;8.20;;;;;;;-0.33;79.62;99443.03;5016541;28;20128;-49
2022/12/12 02:56:49;;;;;;;25.98;8.52;;;;;;;-0.32;78.81;99439.66;5020603;28;20041;-51
2022/12/12 02:59:21;;;;;;;21.52;9.07;;;;;;;-0.31;78.98;99440.50;5007977;28;20540;-53
2022/12/12 03:02:27;;;;;;;25.23;7.82;;;;;;;-0.31;79.26;99443.06;5020277;28;20540;-52
2022/12/12 03:10:31;;;;;;;23.77;6.80;;;;;;;-0.24;78.58;99441.59;5029672;27;20776;-51
2022/12/12 03:21:06;;;;;;;20.45;8.45;;;;;;;-0.23;78.89;99444.19;5051367;27;20394;-50
2022/12/12 03:23:40;;;;;;;18.63;8.25;;;;;;;-0.23;78.80;99448.41;5000430;28;20046;-53
2022/12/12 03:28:59;;;;;;;17.35;5.93;;;;;;;-0.26;78.91;99434.75;5059783;28;20898;-49
2022/12/12 03:31:30;;;;;;;19.60;6.40;;;;;;;-0.24;78.80;99436.50;5005344;28;20501;-52
2022/12/12 03:34:03;;;;;;;16.48;6.55;;;;;;;-0.27;79.03;99433.03;5002022;28;20137;-49
2022/12/12 03:36:37;;;;;;;15.43;4.65;;;;;;;-0.27;78.84;99438.13;4999769;28;20134;-52
2022/12/12 03:39:12;;;;;;;21.30;6.45;;;;;;;-0.27;78.94;99435.56;5000154;28;20073;-49
2022/12/12 03:41:45;;;;;;;17.73;6.03;;;;;;;-0.28;78.67;99426.22;4999980;28;20089;-46
2022/12/12 03:47:00;;;;;;;18.55;5.63;;;;;;;-0.24;79.09;99421.22;5055224;28;20944;-50
2022/12/12 03:49:49;;;;;;;17.70;5.25;;;;;;;-0.27;78.71;99412.66;5023923;28;20056;-50
2022/12/12 03:52:23;;;;;;;28.60;9.55;;;;;;;-0.27;79.31;99412.66;5018164;28;20155;-49
2022/12/12 03:54:58;;;;;;;20.52;6.47;;;;;;;-0.27;78.99;99420.31;5014537;28;20046;-53
2022/12/12 03:57:34;;;;;;;19.02;6.78;;;;;;;-0.28;79.25;99431.31;5018356;28;20050;-50
2022/12/12 04:00:06;;;;;;;24.67;7.90;;;;;;;-0.28;79.00;99420.25;5017931;28;20046;-53
2022/12/12 04:03:06;;;;;;;16.85;6.53;;;;;;;-0.30;78.96;99430.38;5017799;28;20096;-50
2022/12/12 04:08:15;;;;;;;24.50;9.48;;;;;;;-0.29;79.05;99428.72;5082903;27;20731;-45
2022/12/12 04:13:52;;;;;;;22.77;8.43;;;;;;;-0.28;79.01;99433.84;5017532;28;20509;-47
2022/12/12 04:16:29;;;;;;;29.45;8.75;;;;;;;-0.26;78.95;99439.84;5017985;28;20133;-50
2022/12/12 04:23:13;;;;;;;26.42;8.07;;;;;;;-0.23;78.64;99443.31;5018066;28;20120;-49
2022/12/12 04:25:17;;;;;;;21.65;8.18;;;;;;;-0.19;79.04;99450.22;5016440;28;20412;-48
2022/12/12 04:27:50;;;;;;;26.10;7.60;;;;;;;-0.17;78.91;99451.16;5021394;28;20513;-47
2022/12/12 04:30:17;;;;;;;29.02;8.32;;;;;;;-0.14;78.86;99449.56;5016384;28;20638;-50
2022/12/12 04:32:49;;;;;;;30.02;8.60;;;;;;;-0.11;78.41;99453.03;5017831;28;20084;-55
2022/12/12 04:35:25;;;;;;;29.38;7.95;;;;;;;-0.10;78.56;99450.50;5016578;28;20179;-51
2022/12/12 04:37:55;;;;;;;25.33;8.70;;;;;;;-0.10;79.09;99440.31;5038666;28;20562;-45
2022/12/12 04:40:34;;;;;;;20.60;7.47;;;;;;;-0.11;78.61;99438.59;5031941;28;20088;-54
2022/12/12 04:43:24;;;;;;;22.50;7.45;;;;;;;-0.15;78.43;99435.09;5032803;28;20541;-49
2022/12/12 04:45:56;;;;;;;22.15;7.55;;;;;;;-0.14;78.24;99443.59;5020324;28;20081;-48
2022/12/12 04:48:30;;;;;;;29.48;8.00;;;;;;;-0.18;78.37;99437.53;5038937;28;20056;-49
2022/12/12 04:51:04;;;;;;;18.10;6.55;;;;;;;-0.21;78.72;99441.69;5034900;28;20057;-54
2022/12/12 04:53:37;;;;;;;17.95;4.80;;;;;;;-0.22;78.73;99447.56;5032486;28;20758;-52
2022/12/12 04:56:08;;;;;;;24.83;8.80;;;;;;;-0.23;79.00;99443.31;5038076;28;20659;-49
2022/12/12 04:58:37;;;;;;;24.15;7.72;;;;;;;-0.24;78.31;99446.69;5036069;28;20525;-50
2022/12/12 05:06:29;;;;;;;33.00;10.77;;;;;;;-0.17;78.97;99446.91;5015906;28;20423;-46
2022/12/12 05:08:57;;;;;;;32.25;8.52;;;;;;;-0.22;79.12;99450.13;4988942;28;20082;-53
2022/12/12 05:11:23;;;;;;;38.35;9.85;;;;;;;-0.24;78.92;99449.22;4996421;28;20154;-54
2022/12/12 05:13:50;;;;;;;32.80;10.20;;;;;;;-0.23;79.36;99456.03;4993507;28;20077;-51
2022/12/12 05:16:39;;;;;;;29.25;8.82;;;;;;;-0.25;79.07;99458.53;4993309;28;20458;-47
2022/12/12 05:19:05;;;;;;;27.23;8.40;;;;;;;-0.26;79.06;99457.66;4998089;28;20426;-52
2022/12/12 05:21:32;;;;;;;31.00;8.57;;;;;;;-0.30;79.06;99453.28;4992238;28;20140;-50
2022/12/12 05:23:59;;;;;;;21.90;7.93;;;;;;;-0.31;79.06;99453.22;4993452;28;20173;-46
2022/12/12 05:26:28;;;;;;;9.50;3.83;;;;;;;-0.36;79.38;99453.13;4997463;28;20046;-49
2022/12/12 05:28:55;;;;;;;30.73;7.70;;;;;;;-0.36;78.98;99458.19;5000218;28;20070;-52
2022/12/12 05:31:22;;;;;;;18.73;6.47;;;;;;;-0.39;78.86;99458.09;4992627;28;20125;-50
2022/12/12 05:33:48;;;;;;;16.20;6.55;;;;;;;-0.42;79.42;99458.88;4996382;28;20085;-51
2022/12/12 05:36:15;;;;;;;30.17;8.80;;;;;;;-0.41;79.21;99467.34;4993084;28;20518;-49
2022/12/12 05:38:43;;;;;;;32.38;7.85;;;;;;;-0.40;79.08;99471.66;4996794;28;20096;-47
2022/12/12 05:41:10;;;;;;;27.48;7.50;;;;;;;-0.40;78.99;99462.31;4997763;28;20073;-50
2022/12/12 05:43:37;;;;;;;20.48;7.15;;;;;;;-0.38;78.94;99470.00;4989259;28;20157;-48
2022/12/12 05:46:05;;;;;;;32.05;8.88;;;;;;;-0.40;78.98;99469.09;4990982;28;20581;-49
2022/12/12 05:48:32;;;;;;;23.50;5.10;;;;;;;-0.41;79.25;99469.88;4993180;28;20137;-56
2022/12/12 05:51:01;;;;;;;24.60;6.78;;;;;;;-0.42;78.84;99473.25;4992894;28;20443;-53
2022/12/12 05:53:28;;;;;;;28.17;8.23;;;;;;;-0.44;79.03;99465.56;4989672;28;20046;-48
2022/12/12 05:55:55;;;;;;;26.05;8.68;;;;;;;-0.44;78.94;99464.72;4996783;28;20100;-49
2022/12/12 05:58:22;;;;;;;24.17;7.00;;;;;;;-0.43;78.97;99471.53;4986590;28;20074;-47
2022/12/12 06:00:50;;;;;;;30.67;7.13;;;;;;;-0.43;78.92;99462.25;4989429;28;20553;-52
2022/12/12 06:03:19;;;;;;;20.27;6.93;;;;;;;-0.43;78.96;99466.44;4994355;28;21693;-53
2022/12/12 06:05:45;;;;;;;22.83;5.30;;;;;;;-0.46;79.01;99461.25;4989193;28;20141;-52
2022/12/12 06:08:13;;;;;;;21.52;6.13;;;;;;;-0.46;78.71;99456.16;4989218;28;20081;-45
2022/12/12 06:10:39;;;;;;;37.33;9.35;;;;;;;-0.47;78.91;99462.06;4994829;28;20065;-51
2022/12/12 06:13:06;;;;;;;39.72;9.15;;;;;;;-0.46;78.81;99456.16;4998246;28;20086;-52
2022/12/12 06:15:33;;;;;;;30.42;7.93;;;;;;;-0.45;78.80;99465.53;4993439;28;20065;-50
2022/12/12 06:17:59;;;;;;;28.77;9.15;;;;;;;-0.45;78.90;99452.78;4979359;28;20067;-50
2022/12/12 06:20:27;;;;;;;40.40;9.43;;;;;;;-0.44;78.84;99459.63;4979248;28;20081;-55
2022/12/12 06:22:53;;;;;;;32.20;9.40;;;;;;;-0.40;78.83;99461.47;4980998;28;20084;-50
2022/12/12 06:25:20;;;;;;;27.63;7.45;;;;;;;-0.39;79.00;99460.63;4976814;28;20133;-47
2022/12/12 06:27:47;;;;;;;26.55;7.18;;;;;;;-0.38;79.03;99464.91;4983438;28;20137;-52
2022/12/12 06:30:13;;;;;;;28.33;8.40;;;;;;;-0.37;78.82;99459.03;4977312;28;20085;-54
2022/12/12 06:32:40;;;;;;;26.90;8.18;;;;;;;-0.36;79.35;99453.13;4976649;28;20055;-52
2022/12/12 06:35:08;;;;;;;25.15;7.72;;;;;;;-0.35;78.60;99449.75;4979916;28;20081;-49
2022/12/12 06:37:35;;;;;;;24.38;6.60;;;;;;;-0.34;78.76;99455.72;4978291;28;20061;-49
2022/12/12 06:40:02;;;;;;;19.65;6.10;;;;;;;-0.35;78.72;99457.38;4978063;28;20073;-51
2022/12/12 06:42:29;;;;;;;22.70;7.82;;;;;;;-0.38;78.68;99454.72;4978934;28;20145;-50
2022/12/12 06:44:55;;;;;;;31.23;7.90;;;;;;;-0.40;78.71;99451.28;4973235;28;20137;-50
2022/12/12 06:47:22;;;;;;;22.63;8.02;;;;;;;-0.42;78.79;99455.44;4981135;28;20545;-54
2022/12/12 06:49:49;;;;;;;29.75;7.22;;;;;;;-0.43;78.84;99457.16;4973558;28;20549;-50
2022/12/12 06:52:15;;;;;;;27.73;8.00;;;;;;;-0.44;78.53;99459.63;4968849;28;20054;-51
2022/12/12 06:54:42;;;;;;;31.45;7.72;;;;;;;-0.44;78.52;99459.63;4975954;28;20133;-52
2022/12/12 06:57:08;;;;;;;18.70;5.57;;;;;;;-0.46;78.58;99456.16;4978738;28;20084;-47
2022/12/12 06:59:35;;;;;;;30.60;8.05;;;;;;;-0.50;78.67;99459.44;4977748;28;20110;-54
2022/12/12 07:02:02;;;;;;;23.92;7.22;;;;;;;-0.50;78.73;99444.16;4973751;28;20189;-51
2022/12/12 07:04:29;;;;;;;6.75;2.35;;;;;;;-0.55;78.95;99442.34;4971176;28;20140;-51
2022/12/12 07:06:55;;;;;;;23.80;6.53;;;;;;;-0.57;78.87;99443.94;4976338;28;20051;-53
2022/12/12 07:09:22;;;;;;;28.20;8.35;;;;;;;-0.56;79.09;99450.78;4984434;28;20765;-50
2022/12/12 07:11:49;;;;;;;21.88;6.40;;;;;;;-0.55;78.83;99449.09;4980087;28;20125;-49
2022/12/12 07:14:16;;;;;;;28.92;7.63;;;;;;;-0.55;78.98;99456.72;4984041;28;20088;-51
2022/12/12 07:16:42;;;;;;;20.50;6.45;;;;;;;-0.54;79.11;99458.47;4975897;28;20474;-53
2022/12/12 07:19:09;;;;;;;16.52;6.13;;;;;;;-0.54;78.80;99459.31;4977022;28;20148;-50
2022/12/12 07:21:36;;;;;;;24.90;7.25;;;;;;;-0.55;78.75;99457.59;4976133;28;20502;-53
2022/12/12 07:24:02;;;;;;;25.85;6.80;;;;;;;-0.56;79.11;99458.41;4974790;28;20104;-53
2022/12/12 07:26:29;;;;;;;22.30;6.22;;;;;;;-0.57;78.67;99453.28;4977444;28;20165;-51
2022/12/12 07:28:55;;;;;;;29.92;8.25;;;;;;;-0.60;78.61;99448.09;4975627;28;20494;-47
2022/12/12 07:31:25;;;;;;;21.02;7.57;;;;;;;-0.60;78.71;99443.88;4975128;28;20137;-48
2022/12/12 07:33:53;;;;;;;19.13;6.40;;;;;;;-0.62;78.72;99445.50;4980237;28;20042;-49
2022/12/12 07:36:19;;;;;;;17.20;5.90;;;;;;;-0.63;78.81;99443.78;4982523;28;20078;-52
2022/12/12 07:38:46;;;;;;;19.67;6.13;;;;;;;-0.62;78.76;99444.63;4980303;28;20474;-50
2022/12/12 07:41:15;;;;;;;20.40;5.28;;;;;;;-0.62;78.79;99445.50;4978678;28;20125;-50
2022/12/12 07:43:44;;;;;;;22.83;7.18;;;;;;;-0.62;78.53;99450.56;4977047;28;20081;-53
2022/12/12 07:46:14;;;;;;;16.15;5.07;;;;;;;-0.63;78.65;99459.03;4965524;28;20109;-49
2022/12/12 07:48:41;;;;;;;19.08;6.00;;;;;;;-0.65;78.68;99455.56;4974935;28;20077;-52
2022/12/12 07:51:08;;;;;;;25.73;6.32;;;;;;;-0.69;78.89;99469.88;4978993;28;20506;-52
2022/12/12 07:53:37;;;;;;;18.63;5.78;;;;;;;-0.70;78.75;99477.44;4977376;28;20148;-51
2022/12/12 07:56:06;;;;;;;20.73;6.82;;;;;;;-0.69;78.37;99484.25;4981925;28;20054;-47
2022/12/12 07:58:33;;;;;;;21.73;6.75;;;;;;;-0.69;78.78;99479.16;4982853;28;20073;-48
2022/12/12 08:01:00;;;;;;;11.93;4.00;;;;;;;-0.69;78.40;99479.16;4982270;28;20056;-48
2022/12/12 08:03:27;;;;;;;17.75;6.18;;;;;;;-0.68;79.24;99471.59;4965257;28;20502;-49
2022/12/12 08:05:53;;;;;;;20.73;5.38;;;;;;;-0.67;78.35;99485.19;4983097;28;20050;-49
2022/12/12 08:08:20;;;;;;;24.42;6.68;;;;;;;-0.67;79.03;99480.09;4980874;28;20076;-52
2022/12/12 08:10:47;;;;;;;20.23;7.00;;;;;;;-0.68;78.74;99481.75;4975241;28;20068;-50
2022/12/12 08:13:13;;;;;;;25.15;6.45;;;;;;;-0.66;78.27;99476.72;4966410;28;20082;-49
2022/12/12 08:15:42;;;;;;;28.17;8.18;;;;;;;-0.66;78.54;99479.28;4968339;28;20108;-51
2022/12/12 08:18:09;;;;;;;26.90;7.10;;;;;;;-0.64;78.57;99487.84;4988136;28;20049;-54
2022/12/12 08:20:38;;;;;;;25.33;8.32;;;;;;;-0.63;78.49;99488.69;4972536;28;20074;-50
2022/12/12 08:23:06;;;;;;;24.92;8.05;;;;;;;-0.61;78.66;99481.97;4978843;28;20096;-52
2022/12/12 08:25:34;;;;;;;23.20;6.65;;;;;;;-0.60;78.54;99474.41;4987778;28;20046;-51
2022/12/12 08:28:01;;;;;;;27.52;6.90;;;;;;;-0.57;78.46;99479.56;4980513;28;20498;-53
2022/12/12 08:30:28;;;;;;;27.95;6.85;;;;;;;-0.55;78.52;99477.94;4980761;28;20807;-48
2022/12/12 08:32:54;;;;;;;25.27;6.35;;;;;;;-0.54;79.00;99484.75;4978274;28;20073;-47
2022/12/12 08:35:21;;;;;;;32.70;8.13;;;;;;;-0.54;78.67;99484.75;4984875;28;20054;-51
2022/12/12 08:37:47;;;;;;;21.38;6.82;;;;;;;-0.50;78.95;99490.84;4979377;28;20058;-53
2022/12/12 08:40:14;;;;;;;32.45;9.10;;;;;;;-0.48;78.68;99483.25;4978830;28;20140;-49
2022/12/12 08:42:41;;;;;;;23.60;8.25;;;;;;;-0.45;78.31;99488.41;4979478;28;20068;-55
2022/12/12 08:45:08;;;;;;;31.90;8.95;;;;;;;-0.44;78.50;99480.00;4982610;28;20141;-51
2022/12/12 08:47:34;;;;;;;26.25;7.57;;;;;;;-0.44;78.55;99485.09;4983362;28;20128;-53
2022/12/12 08:50:02;;;;;;;28.92;9.00;;;;;;;-0.42;78.43;99468.16;4977734;28;20173;-52
2022/12/12 08:52:28;;;;;;;31.05;9.93;;;;;;;-0.40;78.42;99461.47;4981884;28;20128;-53
2022/12/12 08:54:55;;;;;;;28.08;9.02;;;;;;;-0.41;78.70;99462.25;4977738;28;20049;-51
2022/12/12 08:57:22;;;;;;;41.67;11.43;;;;;;;-0.40;78.49;99471.66;4981082;28;20054;-49
2022/12/12 08:59:51;;;;;;;31.80;8.60;;;;;;;-0.38;78.44;99476.78;4977857;28;20133;-49
2022/12/12 09:02:18;;;;;;;33.75;9.82;;;;;;;-0.35;78.47;99479.41;4983071;28;20081;-50
2022/12/12 09:04:44;;;;;;;33.70;9.75;;;;;;;-0.32;78.50;99482.94;4975044;28;20049;-52
2022/12/12 09:07:11;;;;;;;29.55;8.80;;;;;;;-0.31;78.50;99487.19;4978667;28;20074;-53
2022/12/12 09:09:38;;;;;;;39.28;11.82;;;;;;;-0.28;78.67;99491.50;4977412;28;20051;-50
2022/12/12 09:12:05;;;;;;;32.83;10.60;;;;;;;-0.26;77.95;99490.75;4976376;28;20047;-49
2022/12/12 09:14:32;;;;;;;34.40;10.90;;;;;;;-0.23;78.28;99491.69;4980366;28;20141;-49
2022/12/12 09:16:58;;;;;;;36.75;9.25;;;;;;;-0.21;78.32;99495.16;4977824;28;20062;-52
2022/12/12 09:19:25;;;;;;;31.90;9.90;;;;;;;-0.20;78.96;99489.22;4974774;28;20081;-52
2022/12/12 09:21:51;;;;;;;30.23;8.40;;;;;;;-0.20;78.35;99492.63;4975342;28;20141;-53
2022/12/12 09:24:18;;;;;;;37.97;10.80;;;;;;;-0.16;78.07;99493.59;4982318;28;20073;-50
2022/12/12 09:26:45;;;;;;;31.85;10.68;;;;;;;-0.12;78.24;99492.88;4980454;28;20046;-48
2022/12/12 09:29:12;;;;;;;34.20;11.25;;;;;;;-0.10;78.25;99500.56;4975369;28;20085;-50
2022/12/12 09:31:38;;;;;;;33.10;11.50;;;;;;;-0.08;78.54;99489.63;4978229;28;20046;-50
2022/12/12 09:34:05;;;;;;;29.17;8.93;;;;;;;-0.06;78.39;99493.09;4980058;28;20097;-49
2022/12/12 09:36:31;;;;;;;33.40;8.68;;;;;;;-0.02;78.30;99491.50;4984143;28;20065;-52
2022/12/12 09:38:58;;;;;;;30.85;8.57;;;;;;;-0.01;78.55;99486.44;4977136;28;20074;-52
2022/12/12 09:41:26;;;;;;;29.77;8.80;;;;;;;0.00;77.91;99482.22;4984130;28;20053;-49
2022/12/12 09:46:56;;;;;;;32.42;11.57;;;;;;;0.03;77.88;99482.28;5030988;28;20388;-50
2022/12/12 09:52:01;;;;;;;27.88;9.30;;;;;;;0.08;78.64;99482.44;5053416;28;20915;-51
2022/12/12 09:54:28;;;;;;;33.20;11.73;;;;;;;0.09;78.01;99481.63;5001501;28;20089;-48
2022/12/12 10:00:11;;;;;;;33.95;9.38;;;;;;;0.13;77.95;99488.53;5011836;27;20427;-52
2022/12/12 10:08:50;;;;;;;38.92;11.82;;;;;;;0.33;78.10;99490.81;5040849;27;20430;-50
2022/12/12 10:14:16;;;;;;;29.17;10.85;;;;;;;0.31;77.91;99488.25;4984670;28;21390;-51
2022/12/12 10:16:43;;;;;;;32.58;10.48;;;;;;;0.31;78.44;99487.38;4999015;28;20137;-47
2022/12/12 10:19:24;;;;;;;25.40;11.18;;;;;;;0.32;77.92;99486.56;4997611;28;20125;-46
2022/12/12 10:21:53;;;;;;;34.67;11.75;;;;;;;0.33;78.17;99486.59;4989885;28;20072;-52
2022/12/12 10:24:29;;;;;;;32.72;11.75;;;;;;;0.35;78.88;99484.97;5003736;28;20505;-54
2022/12/12 10:26:58;;;;;;;34.00;11.95;;;;;;;0.37;78.77;99487.53;4982857;28;20074;-51
2022/12/12 10:29:26;;;;;;;28.77;11.40;;;;;;;0.38;78.63;99479.94;5004037;28;20087;-49
2022/12/12 10:38:05;;;;;;;25.60;10.75;;;;;;;0.41;78.46;99469.00;5046041;27;20388;-49
2022/12/12 10:43:32;;;;;;;28.60;8.48;;;;;;;0.43;77.91;99469.91;5048040;27;20386;-54
2022/12/12 10:48:38;;;;;;;29.20;10.00;;;;;;;0.44;78.37;99473.31;5064632;27;20405;-51
2022/12/12 10:51:10;;;;;;;31.00;8.93;;;;;;;0.42;77.96;99452.88;5003214;27;20145;-52
2022/12/12 10:53:39;;;;;;;29.67;9.07;;;;;;;0.42;78.69;99452.88;5008847;28;20042;-49
2022/12/12 10:56:10;;;;;;;31.13;9.40;;;;;;;0.42;78.25;99458.00;5004969;28;20068;-52
2022/12/12 10:58:41;;;;;;;21.98;6.38;;;;;;;0.41;78.75;99458.81;5000771;28;20806;-45
2022/12/12 11:04:00;;;;;;;16.02;6.20;;;;;;;0.32;78.75;99456.84;5040089;28;20411;-55
2022/12/12 11:06:36;;;;;;;17.65;7.35;;;;;;;0.24;79.57;99463.41;4997850;28;20066;-53
2022/12/12 11:09:16;;;;;;;18.83;5.50;;;;;;;0.24;78.94;99461.72;4996592;28;20038;-49
2022/12/12 11:12:00;;;;;;;17.25;6.78;;;;;;;0.25;79.05;99458.38;4996290;28;20053;-48
2022/12/12 11:14:35;;;;;;;22.92;8.25;;;;;;;0.22;79.82;99453.19;4998508;28;20096;-47
2022/12/12 11:17:17;;;;;;;22.17;7.18;;;;;;;0.07;80.44;99453.56;4998691;28;20382;-51
2022/12/12 11:19:45;;;;;;;16.35;6.20;;;;;;;-0.10;80.90;99465.78;4997132;28;20042;-47
2022/12/12 11:22:13;;;;;;;14.23;5.97;;;;;;;-0.14;80.84;99469.03;4994476;28;20073;-46
2022/12/12 11:24:44;;;;;;;14.38;6.03;;;;;;;-0.23;81.22;99464.56;4997371;28;20479;-45
2022/12/12 11:27:31;;;;;;;12.23;4.30;;;;;;;-0.17;80.30;99454.53;4998226;28;20651;-49
2022/12/12 11:30:01;;;;;;;16.17;5.05;;;;;;;-0.10;80.81;99453.03;4997269;28;20073;-51
2022/12/12 11:35:38;;;;;;;16.33;6.10;;;;;;;-0.05;80.44;99454.06;5017436;27;20405;-50
2022/12/12 11:38:19;;;;;;;13.82;6.63;;;;;;;-0.11;80.71;99453.88;4996224;28;20042;-48
2022/12/12 11:40:57;;;;;;;10.68;6.07;;;;;;;-0.21;81.11;99456.97;4995448;28;20056;-54
2022/12/12 11:43:28;;;;;;;13.20;6.00;;;;;;;-0.16;80.88;99463.06;4992028;28;20145;-52
2022/12/12 11:51:38;;;;;;;12.02;5.78;;;;;;;-0.30;81.38;99463.47;5054724;28;20406;-52
2022/12/12 11:54:18;;;;;;;19.05;7.43;;;;;;;-0.28;80.75;99456.75;5020384;28;20061;-52
2022/12/12 11:56:56;;;;;;;14.57;6.40;;;;;;;-0.24;81.38;99460.25;5016821;28;20042;-54
2022/12/12 12:19:01;;;;;;;7.75;3.03;;;;;;;-0.09;80.36;99447.16;5053317;27;20418;-46
2022/12/12 12:22:02;;;;;;;4.05;2.20;;;;;;;-0.17;81.19;99444.38;5017476;28;20747;-47
2022/12/12 12:27:40;;;;;;;15.30;6.00;;;;;;;0.05;79.92;99446.69;5040292;27;20408;-46
2022/12/12 12:33:23;;;;;;;7.13;4.07;;;;;;;-0.10;81.07;99442.00;5024573;28;20406;-45
2022/12/12 12:39:01;;;;;;;8.65;2.60;;;;;;;-0.13;80.62;99445.34;5020349;27;20412;-48
2022/12/12 12:49:53;;;;;;;7.82;2.92;;;;;;;-0.11;80.93;99432.66;5039719;27;20402;-49
2022/12/12 12:52:33;;;;;;;7.00;3.08;;;;;;;-0.17;81.13;99424.00;5020443;28;20045;-46
2022/12/12 12:55:01;;;;;;;6.22;2.58;;;;;;;-0.12;81.31;99426.69;5012735;28;20049;-51
2022/12/12 12:57:34;;;;;;;7.45;2.10;;;;;;;-0.09;81.17;99431.88;5013358;28;20056;-48
2022/12/12 13:00:29;;;;;;;6.43;2.58;;;;;;;-0.05;81.08;99436.25;5010825;28;20069;-48
2022/12/12 13:03:12;;;;;;;7.65;2.88;;;;;;;-0.04;80.70;99434.53;5011460;28;20161;-43
2022/12/12 13:08:40;;;;;;;7.32;3.83;;;;;;;-0.11;80.97;99433.50;5018306;28;20407;-46
2022/12/12 13:11:16;;;;;;;8.25;3.70;;;;;;;-0.05;80.93;99428.59;4995846;28;20116;-51
2022/12/12 13:13:46;;;;;;;8.02;4.95;;;;;;;-0.02;80.13;99438.91;4997001;28;20502;-48
2022/12/12 13:16:18;;;;;;;8.23;3.75;;;;;;;-0.03;81.20;99437.13;4989814;28;20045;-49
2022/12/12 13:18:57;;;;;;;6.50;4.03;;;;;;;0.01;80.47;99433.03;4994116;28;20063;-49
2022/12/12 13:24:31;;;;;;;10.48;4.97;;;;;;;0.04;80.67;99429.69;5021831;28;20406;-50
2022/12/12 13:34:58;;;;;;;8.55;3.40;;;;;;;0.22;80.46;99427.69;5022136;28;20406;-43
2022/12/12 13:37:26;;;;;;;7.25;2.85;;;;;;;0.22;80.58;99437.00;4999351;28;20054;-46
2022/12/12 13:40:00;;;;;;;11.10;4.03;;;;;;;0.23;80.06;99426.88;5002906;28;20097;-48
2022/12/12 13:43:04;;;;;;;9.73;3.78;;;;;;;0.25;80.06;99432.03;4992423;28;20100;-51
2022/12/12 13:45:41;;;;;;;10.15;3.53;;;;;;;0.25;80.10;99432.91;4996466;28;20062;-53
2022/12/12 13:57:12;;;;;;;10.88;3.33;;;;;;;0.31;79.76;99426.25;5032715;27;20409;-47
2022/12/12 14:08:02;;;;;;;7.05;2.85;;;;;;;0.34;79.71;99428.88;5124481;27;20397;-45
2022/12/12 14:16:05;;;;;;;7.32;2.67;;;;;;;0.15;79.95;99425.78;5073583;27;20398;-52
2022/12/12 14:19:12;;;;;;;7.93;3.65;;;;;;;0.19;79.64;99425.06;5018422;28;20531;-45
2022/12/12 14:21:43;;;;;;;7.18;2.85;;;;;;;0.19;79.84;99422.50;5027212;28;20174;-44
2022/12/12 14:27:11;;;;;;;6.65;2.53;;;;;;;0.12;80.20;99418.94;5020816;27;20419;-51
2022/12/12 14:29:44;;;;;;;4.95;2.17;;;;;;;0.13;80.05;99417.22;5021601;28;20045;-50
2022/12/12 14:35:24;;;;;;;8.07;2.92;;;;;;;0.11;79.80;99413.78;5053164;28;20862;-45
2022/12/12 14:40:32;;;;;;;8.85;3.42;;;;;;;0.01;80.29;99425.38;5033023;28;20399;-49
2022/12/12 14:53:38;;;;;;;11.63;5.88;;;;;;;0.32;79.11;99433.94;5029854;27;20806;-49